Time;durP1;ratioP1;P1;durP2;ratioP2;P2;SDS_P1;SDS_P2;PMS_P1;PMS_P2;Temp;Humidity;BMP_temperature;BMP_pressure;BME280_temperature;BME280_humidity;BME280_pressure;Samples;Min_cycle;Max_cycle;Signal;HPM_P1;HPM_P2
2023/08/23 00:00:09;;;;;;;10.10;4.10;;;;;;;24.98;88.90;96887.16;5013839;28;20034;-67
2023/08/23 00:02:34;;;;;;;5.88;4.00;;;;;;;25.13;88.57;96890.19;5013459;28;20494;-66
2023/08/23 00:05:00;;;;;;;7.35;4.50;;;;;;;25.12;87.99;96892.22;5013815;28;20061;-67
2023/08/23 00:07:25;;;;;;;10.40;4.47;;;;;;;24.93;88.92;96882.16;5013741;28;20426;-66
2023/08/23 00:09:51;;;;;;;10.68;4.70;;;;;;;24.79;90.60;96887.06;5013482;28;20063;-67
2023/08/23 00:12:17;;;;;;;9.75;5.53;;;;;;;24.74;90.15;96879.25;5013233;28;20498;-65
2023/08/23 00:14:43;;;;;;;7.00;4.05;;;;;;;24.82;90.55;96887.38;5013282;28;20040;-66
2023/08/23 00:17:08;;;;;;;14.25;4.43;;;;;;;24.88;91.45;96891.16;5013380;28;20032;-66
2023/08/23 00:19:33;;;;;;;6.28;4.20;;;;;;;24.83;92.27;96883.31;5013306;28;20426;-66
2023/08/23 00:21:59;;;;;;;11.48;4.60;;;;;;;24.73;92.39;96877.69;5013013;28;20033;-66
2023/08/23 00:24:24;;;;;;;7.53;4.57;;;;;;;24.88;90.92;96882.75;5012654;28;20076;-66
2023/08/23 00:26:50;;;;;;;6.00;4.20;;;;;;;25.10;90.01;96893.91;5013087;28;20030;-66
2023/08/23 00:29:15;;;;;;;9.25;4.85;;;;;;;25.03;89.80;96894.19;5013190;28;20640;-66
2023/08/23 00:31:40;;;;;;;6.30;4.30;;;;;;;24.97;90.60;96888.38;5013219;28;20057;-67
2023/08/23 00:34:06;;;;;;;8.93;4.25;;;;;;;24.90;91.14;96891.47;5012876;28;20044;-66
2023/08/23 00:36:31;;;;;;;5.28;4.07;;;;;;;24.98;90.70;96882.34;5013137;28;20030;-66
2023/08/23 00:38:57;;;;;;;8.32;4.80;;;;;;;24.86;91.18;96890.81;5013101;28;20083;-67
2023/08/23 00:41:23;;;;;;;6.97;4.38;;;;;;;24.78;92.04;96887.53;5012624;28;20481;-65
2023/08/23 00:43:48;;;;;;;6.05;4.57;;;;;;;24.80;92.15;96885.81;5012362;28;20034;-66
2023/08/23 00:46:15;;;;;;;9.77;5.03;;;;;;;24.66;92.54;96886.34;5013089;28;20030;-66
2023/08/23 00:48:41;;;;;;;11.82;4.82;;;;;;;24.74;92.76;96886.84;5013384;28;20038;-67
2023/08/23 00:51:08;;;;;;;6.68;4.43;;;;;;;24.64;93.80;96874.81;5013307;28;20438;-66
2023/08/23 00:53:34;;;;;;;9.77;4.57;;;;;;;24.33;95.42;96875.50;5012677;28;20372;-67
2023/08/23 00:56:00;;;;;;;12.32;5.28;;;;;;;23.83;100.00;96878.00;5013046;28;20487;-67
2023/08/23 00:58:25;;;;;;;10.77;6.53;;;;;;;23.81;100.00;96868.50;5011410;28;20061;-66
2023/08/23 01:00:53;;;;;;;11.55;4.80;;;;;;;23.91;100.00;96878.53;5012398;28;20034;-67
2023/08/23 01:03:19;;;;;;;7.40;4.70;;;;;;;23.97;100.00;96876.75;5012185;28;20034;-66
2023/08/23 01:05:44;;;;;;;9.07;4.78;;;;;;;24.11;100.00;96872.69;5012735;28;20080;-67
2023/08/23 01:08:23;;;;;;;12.35;5.38;;;;;;;24.24;99.61;96873.41;5012300;28;20034;-66
2023/08/23 01:10:56;;;;;;;7.65;4.90;;;;;;;24.29;99.17;96866.47;5012609;28;20030;-67
2023/08/23 01:13:33;;;;;;;9.60;5.28;;;;;;;24.40;99.07;96866.06;5012839;28;20026;-68
2023/08/23 01:15:59;;;;;;;7.95;5.18;;;;;;;24.32;98.50;96864.75;5012570;28;20061;-69
2023/08/23 01:18:27;;;;;;;8.77;4.85;;;;;;;24.24;99.04;96872.63;5012695;28;20026;-68
2023/08/23 01:20:53;;;;;;;8.73;4.80;;;;;;;24.26;99.74;96869.38;5012860;28;20034;-69
2023/08/23 01:23:19;;;;;;;10.80;5.43;;;;;;;24.26;100.00;96861.00;5013109;28;20554;-68
2023/08/23 01:25:49;;;;;;;6.65;4.82;;;;;;;24.24;100.00;96856.63;5013524;28;20045;-68
2023/08/23 01:28:15;;;;;;;6.88;5.03;;;;;;;24.18;100.00;96863.25;5013020;28;20355;-69
2023/08/23 01:30:41;;;;;;;8.73;4.95;;;;;;;24.18;100.00;96866.03;5012769;28;20037;-68
2023/08/23 01:33:44;;;;;;;6.80;5.00;;;;;;;24.12;100.00;96862.25;5012365;28;20540;-68
2023/08/23 01:36:27;;;;;;;9.57;4.80;;;;;;;24.13;100.00;96864.63;5015799;28;20065;-68
2023/08/23 01:38:54;;;;;;;8.60;4.70;;;;;;;24.12;100.00;96862.25;5016942;28;20026;-69
2023/08/23 01:41:21;;;;;;;9.18;5.35;;;;;;;24.04;100.00;96864.53;5016708;28;20433;-67
2023/08/23 01:43:47;;;;;;;10.27;4.57;;;;;;;23.95;100.00;96865.22;5016608;28;20140;-67
2023/08/23 01:46:12;;;;;;;11.90;5.20;;;;;;;23.82;100.00;96876.47;5017964;28;20033;-67
2023/08/23 01:48:38;;;;;;;9.73;5.15;;;;;;;23.64;100.00;96865.03;5018553;28;20033;-67
2023/08/23 01:51:03;;;;;;;9.13;5.03;;;;;;;23.57;100.00;96871.66;5017570;28;20332;-67
2023/08/23 01:53:29;;;;;;;6.75;4.55;;;;;;;23.72;100.00;96866.38;5015977;28;20041;-66
2023/08/23 01:55:54;;;;;;;12.70;5.85;;;;;;;23.64;100.00;96871.44;5015095;28;20038;-66
2023/08/23 01:58:19;;;;;;;9.90;5.53;;;;;;;23.50;100.00;96865.50;5016252;28;20034;-67
2023/08/23 02:00:48;;;;;;;8.40;4.55;;;;;;;23.56;100.00;96864.50;5014684;28;20100;-67
2023/08/23 02:03:14;;;;;;;11.20;5.40;;;;;;;23.75;100.00;96865.47;5015926;28;20029;-67
2023/08/23 02:05:39;;;;;;;8.57;4.95;;;;;;;23.75;100.00;96868.28;5015959;28;20765;-67
2023/08/23 02:08:05;;;;;;;7.45;5.32;;;;;;;23.63;100.00;96869.84;5016041;28;20509;-67
2023/08/23 02:10:30;;;;;;;9.27;4.95;;;;;;;23.54;100.00;96871.78;5015780;28;20492;-67
2023/08/23 02:12:56;;;;;;;7.88;4.68;;;;;;;23.54;100.00;96868.97;5015692;28;20030;-67
2023/08/23 02:15:21;;;;;;;11.30;5.40;;;;;;;23.37;100.00;96859.94;5014464;28;20476;-68
2023/08/23 02:17:47;;;;;;;10.13;5.05;;;;;;;23.35;100.00;96859.59;5016057;28;20122;-67
2023/08/23 02:20:12;;;;;;;8.68;5.65;;;;;;;23.44;100.00;96856.91;5015879;28;20124;-67
2023/08/23 02:22:37;;;;;;;9.88;5.18;;;;;;;23.28;100.00;96864.19;5015370;28;20521;-66
2023/08/23 02:25:03;;;;;;;8.95;5.07;;;;;;;23.20;100.00;96865.63;5015484;28;20038;-67
2023/08/23 02:27:28;;;;;;;8.63;5.70;;;;;;;23.21;100.00;96861.63;5015625;28;20030;-67
2023/08/23 02:29:54;;;;;;;8.15;5.45;;;;;;;23.16;100.00;96864.19;5015761;28;20107;-68
2023/08/23 02:32:19;;;;;;;8.68;5.78;;;;;;;23.03;100.00;96864.94;5013810;28;20033;-67
2023/08/23 02:34:44;;;;;;;8.32;5.95;;;;;;;22.86;100.00;96857.88;5017807;28;20034;-68
2023/08/23 02:37:10;;;;;;;5.70;4.70;;;;;;;22.75;100.00;96869.38;5018390;28;20059;-69
2023/08/23 02:39:35;;;;;;;7.90;5.68;;;;;;;22.67;100.00;96866.00;5018881;28;20102;-68
2023/08/23 02:42:01;;;;;;;10.48;5.53;;;;;;;22.70;100.00;96865.09;5023059;28;20030;-68
2023/08/23 02:44:26;;;;;;;9.90;5.97;;;;;;;22.59;100.00;96864.63;5020863;28;20083;-67
2023/08/23 02:46:51;;;;;;;8.52;6.10;;;;;;;22.58;100.00;96859.50;5016495;28;20392;-67
2023/08/23 02:49:17;;;;;;;7.95;5.50;;;;;;;22.66;100.00;96863.66;5015881;28;20398;-68
2023/08/23 02:51:42;;;;;;;11.25;5.97;;;;;;;22.59;100.00;96866.66;5015940;28;20474;-67
2023/08/23 02:54:09;;;;;;;7.03;5.07;;;;;;;22.51;100.00;96875.22;5015326;28;20029;-68
2023/08/23 02:56:34;;;;;;;9.52;5.10;;;;;;;22.54;100.00;96870.75;5015824;28;20042;-67
2023/08/23 02:58:59;;;;;;;8.98;5.28;;;;;;;22.51;100.00;96864.06;5015414;28;20133;-67
2023/08/23 03:01:25;;;;;;;9.48;5.47;;;;;;;22.51;100.00;96863.28;5015541;28;20029;-67
2023/08/23 03:03:50;;;;;;;9.90;6.22;;;;;;;22.36;100.00;96862.88;5015333;28;20037;-65
2023/08/23 03:06:15;;;;;;;6.88;4.70;;;;;;;22.28;100.00;96855.97;5015623;28;20490;-67
2023/08/23 03:08:41;;;;;;;9.50;5.97;;;;;;;22.39;100.00;96853.66;5014990;28;20459;-68
2023/08/23 03:11:07;;;;;;;12.77;6.20;;;;;;;22.51;100.00;96852.91;5014902;28;20054;-68
2023/08/23 03:13:33;;;;;;;18.23;6.63;;;;;;;22.43;100.00;96843.16;5014386;28;20091;-68
2023/08/23 03:16:00;;;;;;;8.38;5.72;;;;;;;22.35;100.00;96846.63;5014570;28;20036;-69
2023/08/23 03:18:26;;;;;;;9.57;6.80;;;;;;;22.12;100.00;96849.16;5014797;28;20029;-68
2023/08/23 03:20:51;;;;;;;13.50;8.40;;;;;;;21.95;100.00;96851.22;5014554;28;20164;-67
2023/08/23 03:23:18;;;;;;;15.93;7.03;;;;;;;21.83;100.00;96857.50;5014069;28;20034;-67
2023/08/23 03:25:45;;;;;;;11.50;6.65;;;;;;;21.61;100.00;96857.28;5014370;28;20029;-67
2023/08/23 03:28:10;;;;;;;7.63;6.28;;;;;;;21.58;100.00;96853.34;5014231;28;20037;-68
2023/08/23 03:30:36;;;;;;;7.70;6.13;;;;;;;21.69;100.00;96849.50;5014469;28;20034;-68
2023/08/23 03:33:01;;;;;;;7.53;5.65;;;;;;;21.76;100.00;96852.13;5012964;28;20124;-68
2023/08/23 03:35:27;;;;;;;12.15;6.35;;;;;;;21.85;100.00;96855.06;5014489;28;20387;-68
2023/08/23 03:37:53;;;;;;;11.60;6.30;;;;;;;21.95;100.00;96856.78;5014414;28;20033;-69
2023/08/23 03:40:18;;;;;;;10.40;6.10;;;;;;;22.04;100.00;96856.16;5014417;28;20030;-67
2023/08/23 03:42:43;;;;;;;10.65;6.30;;;;;;;22.09;100.00;96852.84;5014164;28;20032;-68
2023/08/23 03:45:09;;;;;;;9.93;6.25;;;;;;;22.11;100.00;96850.41;5014371;28;20563;-67
2023/08/23 03:47:35;;;;;;;9.52;6.00;;;;;;;22.02;100.00;96844.66;5014456;28;20030;-68
2023/08/23 03:50:00;;;;;;;12.32;6.95;;;;;;;21.85;100.00;96857.06;5013212;28;20042;-68
2023/08/23 03:52:26;;;;;;;14.32;7.22;;;;;;;21.56;100.00;96850.22;5013466;28;20038;-67
2023/08/23 03:54:51;;;;;;;11.65;6.80;;;;;;;21.48;100.00;96839.66;5014120;28;20030;-67
2023/08/23 03:57:17;;;;;;;12.02;6.55;;;;;;;21.39;100.00;96835.47;5013501;28;20061;-67
2023/08/23 03:59:42;;;;;;;12.15;8.13;;;;;;;21.16;100.00;96847.56;5013808;28;20049;-67
2023/08/23 04:02:07;;;;;;;11.70;7.97;;;;;;;21.03;100.00;96843.91;5014301;28;20053;-67
2023/08/23 04:04:33;;;;;;;9.60;7.50;;;;;;;21.04;100.00;96845.44;5014301;28;20030;-66
2023/08/23 04:06:58;;;;;;;13.60;7.85;;;;;;;20.96;100.00;96842.06;5014955;28;20030;-66
2023/08/23 04:09:23;;;;;;;9.02;7.28;;;;;;;21.09;100.00;96846.94;5013756;28;20108;-67
2023/08/23 04:11:49;;;;;;;9.35;7.10;;;;;;;21.27;100.00;96852.09;5013476;28;20390;-66
2023/08/23 04:14:14;;;;;;;9.57;7.10;;;;;;;21.42;100.00;96853.31;5013071;28;20053;-68
2023/08/23 04:16:40;;;;;;;10.93;6.80;;;;;;;21.47;100.00;96849.25;5013281;28;20029;-67
2023/08/23 04:19:05;;;;;;;9.40;6.85;;;;;;;20.72;100.00;96857.28;5013282;28;20036;-67
2023/08/23 04:21:30;;;;;;;9.70;7.38;;;;;;;20.89;100.00;96852.56;5013293;28;20034;-66
2023/08/23 04:23:56;;;;;;;11.82;7.70;;;;;;;20.97;100.00;96854.75;5012733;28;20034;-67
2023/08/23 04:26:21;;;;;;;10.38;7.35;;;;;;;20.78;100.00;96861.94;5013295;28;20479;-65
2023/08/23 04:28:47;;;;;;;11.80;7.88;;;;;;;21.02;100.00;96861.81;5013462;28;20499;-67
2023/08/23 04:31:12;;;;;;;9.43;7.28;;;;;;;20.93;100.00;96867.19;5014036;28;20114;-66
2023/08/23 04:33:38;;;;;;;10.10;7.35;;;;;;;20.96;100.00;96869.91;5013175;28;20411;-67
2023/08/23 04:36:04;;;;;;;10.45;7.40;;;;;;;21.22;100.00;96877.69;5013088;28;20105;-67
2023/08/23 04:38:30;;;;;;;16.27;7.65;;;;;;;21.21;100.00;96862.97;5013195;28;20026;-67
2023/08/23 04:41:05;;;;;;;10.75;6.68;;;;;;;21.10;100.00;96870.78;5013115;28;20040;-67
2023/08/23 04:43:31;;;;;;;11.45;6.50;;;;;;;21.25;100.00;96865.66;5012422;28;20034;-67
2023/08/23 04:45:58;;;;;;;10.45;6.57;;;;;;;21.40;100.00;96861.31;5013939;28;20418;-67
2023/08/23 04:48:26;;;;;;;13.10;6.80;;;;;;;21.52;100.00;96863.47;5012577;28;20076;-67
2023/08/23 04:50:54;;;;;;;11.93;7.28;;;;;;;21.67;100.00;96866.66;5012573;28;20432;-66
2023/08/23 04:53:19;;;;;;;8.82;7.13;;;;;;;;;;5011924;28;20069;-67
2023/08/23 04:55:45;;;;;;;12.02;6.82;;;;;;;21.71;100.00;96872.91;5012562;28;20034;-67
2023/08/23 04:58:10;;;;;;;10.70;7.03;;;;;;;21.76;100.00;96872.41;5012516;28;20033;-66
2023/08/23 05:00:35;;;;;;;9.88;6.70;;;;;;;21.87;100.00;96880.50;5011896;28;20069;-66
2023/08/23 05:03:01;;;;;;;10.55;6.70;;;;;;;22.02;100.00;96880.13;5012397;28;20093;-67
2023/08/23 05:05:27;;;;;;;12.80;6.95;;;;;;;22.19;100.00;96878.88;5013063;28;20034;-66
2023/08/23 05:07:52;;;;;;;11.25;6.28;;;;;;;22.36;100.00;96885.22;5015347;28;20160;-66
2023/08/23 05:10:18;;;;;;;8.98;6.05;;;;;;;22.50;100.00;96884.03;5011887;28;20496;-66
2023/08/23 05:12:43;;;;;;;9.45;6.43;;;;;;;22.58;100.00;96893.78;5012636;28;20034;-66
2023/08/23 05:15:09;;;;;;;10.90;6.13;;;;;;;22.55;100.00;96900.25;5012493;28;20045;-67
2023/08/23 05:17:34;;;;;;;9.88;6.35;;;;;;;22.31;100.00;96896.94;5012634;28;20033;-66
2023/08/23 05:20:00;;;;;;;11.25;6.57;;;;;;;22.11;100.00;96897.00;5012646;28;20105;-65
2023/08/23 05:22:25;;;;;;;12.20;6.32;;;;;;;22.11;100.00;96894.22;5012095;28;20042;-67
2023/08/23 05:24:51;;;;;;;9.00;6.95;;;;;;;21.93;100.00;96897.47;5012710;28;20084;-67
2023/08/23 05:27:16;;;;;;;11.15;6.53;;;;;;;21.83;100.00;96896.53;5012253;28;20109;-67
2023/08/23 05:29:42;;;;;;;11.45;7.68;;;;;;;21.85;100.00;96896.88;5011971;28;20344;-67
2023/08/23 05:32:07;;;;;;;11.40;6.60;;;;;;;21.82;100.00;96899.75;5011951;28;20034;-68
2023/08/23 05:34:34;;;;;;;12.63;7.15;;;;;;;21.75;100.00;96897.91;5012314;28;20032;-67
2023/08/23 05:36:59;;;;;;;12.13;6.60;;;;;;;21.81;100.00;96893.41;5012339;28;20040;-67
2023/08/23 05:39:24;;;;;;;9.88;6.50;;;;;;;21.95;100.00;96897.84;5012798;28;20076;-68
2023/08/23 05:41:50;;;;;;;9.50;6.50;;;;;;;22.22;100.00;96888.34;5013016;28;20057;-68
2023/08/23 05:44:15;;;;;;;11.60;6.55;;;;;;;22.60;100.00;96893.31;5015950;28;20109;-69
2023/08/23 05:46:40;;;;;;;11.88;6.35;;;;;;;23.03;100.00;96898.47;5016170;28;20034;-68
2023/08/23 05:49:06;;;;;;;8.82;6.55;;;;;;;23.73;100.00;96903.50;5014256;28;20057;-68
2023/08/23 05:51:31;;;;;;;10.23;5.93;;;;;;;24.79;100.00;96909.47;5013690;28;20034;-68
2023/08/23 05:54:00;;;;;;;7.35;5.60;;;;;;;25.58;100.00;96914.09;5012338;28;20112;-69
2023/08/23 05:56:25;;;;;;;8.00;5.30;;;;;;;27.07;92.76;96919.38;5012796;28;20034;-70
2023/08/23 05:58:51;;;;;;;9.00;5.10;;;;;;;28.46;79.38;96923.56;5012387;28;20041;-70
2023/08/23 06:01:16;;;;;;;6.40;4.82;;;;;;;28.85;75.31;96921.53;5011541;28;20057;-70
2023/08/23 06:03:41;;;;;;;7.18;4.55;;;;;;;29.32;69.83;96925.44;5012549;28;20039;-70
2023/08/23 06:06:07;;;;;;;8.45;4.47;;;;;;;28.31;73.74;96931.97;5013875;28;20034;-69
2023/08/23 06:08:33;;;;;;;8.63;5.03;;;;;;;28.15;76.25;96922.69;5020061;28;20089;-69
2023/08/23 06:10:59;;;;;;;7.43;4.75;;;;;;;28.45;74.18;96924.81;5026745;28;20483;-71
2023/08/23 06:13:24;;;;;;;8.90;4.90;;;;;;;28.72;72.22;96929.47;5012925;28;20040;-71
2023/08/23 06:15:50;;;;;;;12.90;4.53;;;;;;;29.59;68.21;96931.25;5010686;28;20033;-73
2023/08/23 06:18:15;;;;;;;7.68;4.65;;;;;;;30.04;64.89;96948.88;5012203;28;20038;-72
2023/08/23 06:20:43;;;;;;;10.00;4.85;;;;;;;30.46;62.25;96942.00;5012572;28;20041;-70
2023/08/23 06:23:08;;;;;;;9.18;4.25;;;;;;;31.45;58.57;96944.84;5015117;28;20036;-70
2023/08/23 06:25:34;;;;;;;6.30;3.72;;;;;;;32.48;53.33;96932.91;5015445;28;20038;-70
2023/08/23 06:27:59;;;;;;;5.43;4.10;;;;;;;32.64;51.40;96946.38;5015546;28;20037;-71
2023/08/23 06:30:24;;;;;;;8.80;5.88;;;;;;;33.24;48.77;96942.66;5015520;28;20032;-70
2023/08/23 06:32:50;;;;;;;8.88;3.80;;;;;;;33.84;47.94;96946.06;5015189;28;20041;-67
2023/08/23 06:35:16;;;;;;;5.95;3.75;;;;;;;34.63;45.62;96951.53;5015417;28;20026;-69
2023/08/23 06:37:43;;;;;;;7.65;3.28;;;;;;;35.26;44.14;96954.84;5015437;28;20026;-69
2023/08/23 06:40:10;;;;;;;14.13;4.03;;;;;;;33.73;45.89;96960.28;5014570;28;20029;-69
2023/08/23 06:42:37;;;;;;;8.23;4.03;;;;;;;34.72;44.04;96950.47;5013129;28;20037;-70
2023/08/23 06:45:02;;;;;;;6.50;3.75;;;;;;;33.64;44.16;96946.31;5015919;28;20426;-70
2023/08/23 06:47:28;;;;;;;7.95;4.00;;;;;;;32.86;47.40;96942.06;5015098;28;20057;-69
2023/08/23 06:49:53;;;;;;;4.95;4.00;;;;;;;31.49;51.67;96936.91;5015029;28;20053;-69
2023/08/23 06:52:19;;;;;;;5.55;3.45;;;;;;;31.45;51.30;96933.53;5014324;28;20030;-69
2023/08/23 06:54:44;;;;;;;10.20;4.88;;;;;;;29.21;61.38;96933.72;5015813;28;20116;-68
2023/08/23 06:57:09;;;;;;;7.75;4.70;;;;;;;27.87;66.82;96933.31;5015180;28;20060;-70
2023/08/23 06:59:35;;;;;;;6.88;4.90;;;;;;;27.25;72.27;96921.34;5014050;28;20065;-70
2023/08/23 07:02:00;;;;;;;10.63;5.82;;;;;;;27.36;72.76;96923.69;5014998;28;20502;-70
2023/08/23 07:04:26;;;;;;;9.40;5.45;;;;;;;26.96;75.22;96918.31;5014894;28;20034;-69
2023/08/23 07:06:51;;;;;;;9.55;5.45;;;;;;;26.82;79.34;96923.31;5015085;28;20041;-71
2023/08/23 07:09:17;;;;;;;9.27;5.40;;;;;;;28.27;71.55;96920.09;5015438;28;20036;-68
2023/08/23 07:11:42;;;;;;;10.30;5.10;;;;;;;30.08;62.52;96930.44;5014546;28;20088;-69
2023/08/23 07:14:08;;;;;;;7.63;4.97;;;;;;;29.73;62.62;96933.28;5014269;28;20026;-70
2023/08/23 07:16:34;;;;;;;11.85;5.03;;;;;;;29.73;62.48;96936.09;5015413;28;20037;-69
2023/08/23 07:19:03;;;;;;;7.95;5.03;;;;;;;29.23;66.65;96936.06;5014567;28;20026;-69
2023/08/23 07:21:29;;;;;;;8.15;5.15;;;;;;;28.77;67.13;96940.88;5014591;28;20026;-69
2023/08/23 07:23:55;;;;;;;10.23;5.70;;;;;;;28.12;71.63;96934.91;5013858;28;20034;-69
2023/08/23 07:26:20;;;;;;;7.75;5.68;;;;;;;27.33;76.13;96929.47;5014247;28;20044;-69
2023/08/23 07:28:46;;;;;;;8.48;5.72;;;;;;;28.37;72.23;96941.31;5012909;28;20034;-68
2023/08/23 07:31:11;;;;;;;11.25;6.45;;;;;;;28.48;69.52;96940.75;5014303;28;20081;-69
2023/08/23 07:33:37;;;;;;;15.63;5.88;;;;;;;28.91;69.99;96944.94;5012847;28;20026;-68
2023/08/23 07:36:02;;;;;;;8.88;6.05;;;;;;;29.29;66.10;96945.38;5014701;28;20061;-68
2023/08/23 07:38:28;;;;;;;9.90;6.20;;;;;;;28.82;70.00;96945.03;5014475;28;20040;-68
2023/08/23 07:40:58;;;;;;;14.20;6.13;;;;;;;29.11;68.58;96941.47;5014634;28;20026;-69
2023/08/23 07:43:24;;;;;;;8.85;6.20;;;;;;;28.14;73.83;96938.00;5014041;28;20034;-69
2023/08/23 07:45:57;;;;;;;7.35;5.88;;;;;;;30.09;65.04;96943.31;5014242;28;20030;-69
2023/08/23 07:48:23;;;;;;;8.60;6.53;;;;;;;29.90;64.71;96944.84;5013975;28;20038;-68
2023/08/23 07:50:56;;;;;;;12.65;6.63;;;;;;;27.86;76.04;96940.19;5013952;28;20064;-68
2023/08/23 07:53:22;;;;;;;10.15;6.25;;;;;;;28.62;74.64;96942.09;5013484;28;20398;-68
2023/08/23 07:55:48;;;;;;;10.00;6.32;;;;;;;30.49;64.28;96950.28;5013858;28;20050;-68
2023/08/23 07:58:14;;;;;;;10.02;5.95;;;;;;;31.05;60.93;96955.03;5013835;28;20034;-68
2023/08/23 08:00:40;;;;;;;11.38;6.60;;;;;;;31.18;60.71;96952.56;5013733;28;20075;-68
2023/08/23 08:03:06;;;;;;;10.77;6.88;;;;;;;30.42;63.03;96953.53;5013121;28;20104;-68
2023/08/23 08:05:34;;;;;;;15.02;7.68;;;;;;;28.64;73.19;96945.22;5013514;28;20074;-68
2023/08/23 08:07:59;;;;;;;10.68;6.25;;;;;;;30.75;64.12;96949.53;5013576;28;20030;-68
2023/08/23 08:10:26;;;;;;;9.95;6.05;;;;;;;31.51;60.06;96948.53;5013441;28;20095;-68
2023/08/23 08:12:51;;;;;;;8.55;5.97;;;;;;;32.00;56.57;96955.06;5013417;28;20042;-69
2023/08/23 08:15:17;;;;;;;10.75;5.65;;;;;;;31.73;57.22;96956.41;5013409;28;20058;-69
2023/08/23 08:17:43;;;;;;;11.45;6.03;;;;;;;31.31;59.26;96955.00;5013320;28;20080;-69
2023/08/23 08:20:10;;;;;;;13.38;6.10;;;;;;;31.61;57.43;96949.13;5013200;28;20038;-69
2023/08/23 08:22:37;;;;;;;15.10;6.03;;;;;;;31.72;57.56;96943.53;5012812;28;20033;-69
2023/08/23 08:25:03;;;;;;;10.07;5.45;;;;;;;31.30;58.13;96953.47;5013225;28;20479;-69
2023/08/23 08:27:28;;;;;;;9.00;6.05;;;;;;;31.81;56.80;96949.00;5013240;28;20113;-69
2023/08/23 08:29:53;;;;;;;8.70;5.82;;;;;;;32.72;53.59;96944.63;5013291;28;20030;-69
2023/08/23 08:32:19;;;;;;;10.82;5.85;;;;;;;34.02;49.81;96953.25;5012737;28;20033;-68
2023/08/23 08:34:44;;;;;;;15.07;5.90;;;;;;;34.51;47.63;96957.78;5011764;28;20054;-69
2023/08/23 08:37:11;;;;;;;10.40;5.82;;;;;;;35.07;45.77;96960.38;5011971;28;20048;-69
2023/08/23 08:39:36;;;;;;;13.30;6.18;;;;;;;35.13;45.46;96958.28;5012914;28;20040;-69
2023/08/23 08:42:02;;;;;;;8.98;5.38;;;;;;;35.79;43.92;96957.53;5012931;28;20033;-70
2023/08/23 08:44:27;;;;;;;10.10;5.93;;;;;;;35.88;43.15;96962.13;5012271;28;20080;-70
2023/08/23 08:46:53;;;;;;;11.75;6.60;;;;;;;31.71;53.82;96953.31;5012088;28;20493;-70
2023/08/23 08:49:18;;;;;;;8.82;6.57;;;;;;;31.50;56.01;96938.47;5012815;28;20505;-69
2023/08/23 08:51:47;;;;;;;11.45;7.13;;;;;;;29.58;65.83;96943.81;5014285;28;20060;-70
2023/08/23 08:54:19;;;;;;;10.27;7.10;;;;;;;29.95;64.51;96940.56;5016694;28;20033;-70
2023/08/23 08:56:47;;;;;;;12.70;7.45;;;;;;;30.34;64.41;96943.91;5015146;28;20347;-68
2023/08/23 08:59:15;;;;;;;10.02;6.50;;;;;;;33.27;53.59;96945.25;5014616;28;20119;-68
2023/08/23 09:01:42;;;;;;;11.02;6.03;;;;;;;34.01;50.31;96957.38;5014142;28;20034;-69
2023/08/23 09:04:08;;;;;;;10.30;6.05;;;;;;;32.81;53.53;96943.63;5011812;28;20026;-70
2023/08/23 09:06:36;;;;;;;12.52;6.55;;;;;;;34.04;49.86;96953.50;5013767;28;20076;-70
2023/08/23 09:09:03;;;;;;;12.85;5.97;;;;;;;34.83;47.77;96958.19;5013714;28;20026;-67
2023/08/23 09:11:29;;;;;;;11.73;5.88;;;;;;;34.59;48.01;96950.25;5013721;28;20497;-68
2023/08/23 09:13:55;;;;;;;11.80;5.93;;;;;;;34.28;49.50;96947.25;5012738;28;20395;-68
2023/08/23 09:16:22;;;;;;;8.95;5.53;;;;;;;35.02;47.14;96958.31;5013770;28;20026;-67
2023/08/23 09:18:48;;;;;;;12.27;6.68;;;;;;;33.89;50.18;96945.28;5014092;28;20034;-70
2023/08/23 09:21:13;;;;;;;14.63;6.97;;;;;;;33.82;50.48;96947.88;5012986;28;20141;-69
2023/08/23 09:23:39;;;;;;;7.88;6.07;;;;;;;33.68;50.59;96941.16;5012360;28;20030;-69
2023/08/23 09:26:06;;;;;;;8.77;6.28;;;;;;;33.75;50.21;96948.41;5011223;28;20061;-71
2023/08/23 09:28:32;;;;;;;12.25;6.53;;;;;;;33.75;50.54;96943.47;5012675;28;20034;-70
2023/08/23 09:30:58;;;;;;;9.60;6.43;;;;;;;33.98;50.27;96944.22;5012791;28;20040;-70
2023/08/23 09:33:25;;;;;;;10.65;5.85;;;;;;;33.85;50.13;96949.66;5012428;28;20030;-70
2023/08/23 09:35:51;;;;;;;10.60;6.55;;;;;;;33.59;50.77;96956.38;5013097;28;20034;-70
2023/08/23 09:38:22;;;;;;;10.18;6.00;;;;;;;33.17;52.08;96951.69;5011846;28;20029;-71
2023/08/23 09:40:48;;;;;;;10.07;6.47;;;;;;;33.64;50.35;96954.84;5013317;28;20033;-70
2023/08/23 09:43:17;;;;;;;14.93;6.28;;;;;;;33.86;50.41;96951.97;5012692;28;20087;-70
2023/08/23 09:45:45;;;;;;;13.23;6.68;;;;;;;34.66;48.02;96953.34;5012930;28;20030;-72
2023/08/23 09:48:11;;;;;;;11.18;6.53;;;;;;;34.64;48.20;96961.59;5012521;28;20514;-72
2023/08/23 09:50:37;;;;;;;10.88;6.00;;;;;;;34.59;48.20;96959.56;5013136;28;20030;-70
2023/08/23 09:53:28;;;;;;;8.50;5.85;;;;;;;34.51;48.68;96963.47;5012387;28;20037;-70
2023/08/23 09:55:54;;;;;;;11.20;6.30;;;;;;;34.05;50.15;96963.59;5013789;28;20552;-71
2023/08/23 09:58:20;;;;;;;9.75;5.88;;;;;;;35.01;47.26;96973.88;5017284;28;20038;-71
2023/08/23 10:00:49;;;;;;;10.27;5.78;;;;;;;34.24;48.62;96963.81;5018679;28;20160;-71
2023/08/23 10:03:15;;;;;;;8.18;5.95;;;;;;;35.12;46.67;96961.66;5018664;28;20117;-70
2023/08/23 10:05:41;;;;;;;9.13;6.13;;;;;;;35.06;46.52;96961.69;5018321;28;20034;-71
2023/08/23 10:08:09;;;;;;;7.32;5.68;;;;;;;35.51;45.86;96949.19;5016867;28;20026;-68
2023/08/23 10:10:36;;;;;;;12.57;6.15;;;;;;;36.14;44.58;96950.19;5016886;28;20038;-69
2023/08/23 10:13:05;;;;;;;10.57;5.78;;;;;;;36.42;42.74;96947.06;5015043;28;20394;-70
2023/08/23 10:15:34;;;;;;;11.82;5.78;;;;;;;36.46;43.42;96941.06;5016023;28;20059;-69
2023/08/23 10:18:01;;;;;;;16.13;6.30;;;;;;;36.28;44.94;96943.31;5016329;28;20034;-71
2023/08/23 10:20:27;;;;;;;13.63;7.13;;;;;;;36.25;44.57;96943.63;5016682;28;20064;-71
2023/08/23 10:22:54;;;;;;;10.25;5.88;;;;;;;35.46;45.91;96928.03;5017615;28;20487;-71
2023/08/23 10:25:21;;;;;;;14.27;7.10;;;;;;;35.94;44.90;96929.44;5018244;28;20029;-73
2023/08/23 10:27:54;;;;;;;13.95;6.43;;;;;;;35.70;45.24;96926.56;5019865;28;20030;-72
2023/08/23 10:30:27;;;;;;;14.82;7.13;;;;;;;35.46;45.47;96928.03;5018176;28;20040;-69
2023/08/23 10:32:53;;;;;;;12.50;7.15;;;;;;;34.44;48.12;96925.75;5017833;28;20376;-71
2023/08/23 10:35:29;;;;;;;10.50;7.25;;;;;;;34.70;46.98;96915.31;5019402;28;20053;-72
2023/08/23 10:37:57;;;;;;;12.05;7.05;;;;;;;33.67;50.01;96912.00;5016520;28;20052;-73
2023/08/23 10:40:22;;;;;;;9.40;6.88;;;;;;;33.68;50.72;96902.16;5017385;28;20044;-71
2023/08/23 10:42:51;;;;;;;10.75;6.50;;;;;;;34.12;49.91;96910.34;5017669;28;20105;-71
2023/08/23 10:45:16;;;;;;;9.05;6.38;;;;;;;35.09;47.31;96905.78;5016175;28;20034;-71
2023/08/23 10:47:42;;;;;;;10.95;7.30;;;;;;;34.71;47.52;96911.19;5016761;28;20084;-71
2023/08/23 10:50:08;;;;;;;14.40;7.20;;;;;;;34.64;47.69;96901.09;5017298;28;20375;-72
2023/08/23 10:52:33;;;;;;;12.80;8.27;;;;;;;34.21;49.45;96893.78;5017178;28;20046;-71
2023/08/23 10:54:59;;;;;;;17.33;9.00;;;;;;;34.42;48.92;96902.75;5016489;28;20034;-71
2023/08/23 10:57:25;;;;;;;11.32;7.63;;;;;;;33.99;48.64;96893.84;5016360;28;20562;-71
2023/08/23 10:59:50;;;;;;;12.32;8.02;;;;;;;33.66;50.09;96895.47;5015598;28;20034;-71
2023/08/23 11:02:16;;;;;;;10.00;7.20;;;;;;;33.86;50.38;96892.31;5014277;28;20156;-71
2023/08/23 11:04:44;;;;;;;13.70;8.82;;;;;;;33.74;50.31;96896.47;5015712;28;20120;-69
2023/08/23 11:07:11;;;;;;;13.10;7.90;;;;;;;33.34;51.52;96887.22;5014689;28;20072;-71
2023/08/23 11:09:36;;;;;;;11.95;8.30;;;;;;;33.25;52.14;96896.00;5014725;28;20057;-70
2023/08/23 11:12:04;;;;;;;12.70;7.82;;;;;;;33.08;52.81;96901.59;5014588;28;20451;-70
2023/08/23 11:14:30;;;;;;;18.70;9.00;;;;;;;32.74;53.73;96907.25;5014868;28;20025;-71
2023/08/23 11:16:55;;;;;;;15.18;8.38;;;;;;;32.63;54.29;96899.50;5014630;28;20390;-71
2023/08/23 11:19:21;;;;;;;13.90;9.23;;;;;;;32.13;56.00;96889.47;5014770;28;20457;-71
2023/08/23 11:21:47;;;;;;;19.08;9.57;;;;;;;31.87;57.08;96900.13;5014547;28;20548;-68